createdAt,value
2023-01-08T00:02:49.975Z,8.73
2023-01-08T00:06:53.016Z,8.67
2023-01-08T00:10:57.211Z,8.17
2023-01-08T00:14:59.896Z,7.90
2023-01-08T00:19:02.925Z,8.97
2023-01-08T00:23:05.623Z,8.73
2023-01-08T00:27:09.738Z,8.60
2023-01-08T00:31:13.611Z,8.10
2023-01-08T00:35:16.679Z,8.53
2023-01-08T00:39:19.792Z,8.23
2023-01-08T00:43:24.123Z,8.43
2023-01-08T00:47:27.158Z,9.03
2023-01-08T00:51:29.924Z,9.57
2023-01-08T00:55:33.030Z,9.20
2023-01-08T00:59:37.517Z,8.93
2023-01-08T01:03:40.242Z,8.20
2023-01-08T01:07:43.455Z,8.97
2023-01-08T01:11:46.230Z,8.90
2023-01-08T01:16:00.149Z,8.33
2023-01-08T01:20:03.495Z,8.80
2023-01-08T01:24:07.608Z,9.00
2023-01-08T01:28:10.473Z,9.07
2023-01-08T01:32:14.849Z,9.00
2023-01-08T01:36:19.520Z,8.27
2023-01-08T01:40:22.289Z,8.40
2023-01-08T01:44:37.323Z,8.50
2023-01-08T01:48:41.982Z,8.77
2023-01-08T01:52:47.819Z,8.97
2023-01-08T01:56:50.907Z,9.40
2023-01-08T02:00:54.812Z,10.70
2023-01-08T02:04:59.191Z,9.53
2023-01-08T02:09:03.673Z,10.27
2023-01-08T02:13:10.010Z,9.50
2023-01-08T02:17:17.450Z,9.53
2023-01-08T02:21:30.433Z,9.93
2023-01-08T02:25:56.547Z,9.20
2023-01-08T02:29:59.413Z,9.43
2023-01-08T02:34:02.210Z,9.00
2023-01-08T02:38:05.494Z,9.57
2023-01-08T02:42:12.787Z,10.03
2023-01-08T02:46:18.998Z,10.13
2023-01-08T02:50:27.657Z,9.70
2023-01-08T02:54:33.519Z,9.83
2023-01-08T02:58:38.957Z,9.77
2023-01-08T03:02:42.735Z,10.50
2023-01-08T03:06:46.434Z,9.80
2023-01-08T03:10:56.329Z,10.57
2023-01-08T03:15:01.992Z,11.00
2023-01-08T03:19:09.839Z,11.13
2023-01-08T03:23:13.730Z,9.37
2023-01-08T03:27:19.142Z,10.10
2023-01-08T03:31:25.320Z,11.00
2023-01-08T03:35:30.854Z,10.00
2023-01-08T03:39:39.315Z,10.40
2023-01-08T03:43:42.215Z,10.43
2023-01-08T03:47:46.872Z,8.67
2023-01-08T03:51:49.594Z,9.73
2023-01-08T03:55:52.337Z,9.60
2023-01-08T03:59:55.072Z,9.87
2023-01-08T04:03:59.165Z,8.87
2023-01-08T04:08:01.913Z,9.07
2023-01-08T04:12:05.327Z,9.40
2023-01-08T04:16:09.121Z,9.40
2023-01-08T04:20:13.650Z,10.03
2023-01-08T04:24:16.503Z,10.20
2023-01-08T04:28:19.445Z,9.30
2023-01-08T04:32:22.163Z,8.60
2023-01-08T04:36:26.679Z,9.03
2023-01-08T04:40:29.584Z,9.33
2023-01-08T04:44:32.373Z,8.70
2023-01-08T04:48:35.264Z,9.60
2023-01-08T04:52:39.246Z,9.90
2023-01-08T04:56:42.016Z,9.13
2023-01-08T05:00:45.026Z,8.97
2023-01-08T05:04:50.754Z,9.67
2023-01-08T05:08:55.184Z,9.03
2023-01-08T05:12:59.986Z,8.77
2023-01-08T05:17:02.715Z,9.00
2023-01-08T05:21:06.356Z,10.00
2023-01-08T05:25:11.050Z,9.40
2023-01-08T05:29:13.804Z,8.80
2023-01-08T05:33:16.495Z,8.33
2023-01-08T05:37:19.185Z,8.27
2023-01-08T05:41:23.709Z,8.77
2023-01-08T05:45:26.730Z,9.00
2023-01-08T05:49:29.352Z,8.40
2023-01-08T05:53:33.092Z,8.40
2023-01-08T05:57:38.799Z,9.63
2023-01-08T06:01:41.700Z,8.90
2023-01-08T06:05:44.471Z,9.23
2023-01-08T06:09:47.377Z,9.27
2023-01-08T06:13:51.773Z,9.57
2023-01-08T06:17:54.515Z,8.87
2023-01-08T06:21:57.632Z,9.20
2023-01-08T06:26:01.755Z,8.50
2023-01-08T06:30:06.961Z,8.70
2023-01-08T06:34:09.768Z,9.40
2023-01-08T06:38:12.417Z,9.47
2023-01-08T06:42:15.138Z,8.40
2023-01-08T06:46:19.335Z,9.30
2023-01-08T06:50:22.248Z,8.60
2023-01-08T06:54:24.997Z,9.50
2023-01-08T06:58:28.855Z,9.37
2023-01-08T07:02:33.168Z,9.10
2023-01-08T07:06:36.035Z,9.53
2023-01-08T07:10:38.787Z,9.93
2023-01-08T07:14:42.070Z,9.97
2023-01-08T07:18:46.167Z,9.73
2023-01-08T07:22:48.879Z,10.30
2023-01-08T07:26:51.576Z,9.47
2023-01-08T07:30:54.512Z,10.23
2023-01-08T07:34:59.642Z,10.97
2023-01-08T07:39:02.556Z,9.83
2023-01-08T07:43:06.675Z,9.30
2023-01-08T07:47:09.408Z,9.80
2023-01-08T07:51:13.506Z,9.73
2023-01-08T07:55:16.644Z,11.33
2023-01-08T07:59:19.566Z,10.20
2023-01-08T08:03:22.661Z,10.13
2023-01-08T08:07:26.741Z,9.30
2023-01-08T08:11:29.504Z,11.13
2023-01-08T08:15:32.703Z,9.07
2023-01-08T08:19:35.336Z,9.13
2023-01-08T08:23:39.655Z,9.00
2023-01-08T08:27:42.563Z,10.13
2023-01-08T08:31:45.263Z,9.10
2023-01-08T08:35:49.996Z,10.83
2023-01-08T08:39:54.091Z,8.90
2023-01-08T08:43:56.843Z,9.27
2023-01-08T08:47:59.672Z,9.47
2023-01-08T08:52:02.346Z,10.10
2023-01-08T08:56:08.641Z,8.90
2023-01-08T09:00:12.717Z,8.80
2023-01-08T09:04:15.414Z,9.23
2023-01-08T09:08:18.222Z,11.40
2023-01-08T09:12:22.981Z,10.40
2023-01-08T09:16:25.816Z,9.40
2023-01-08T09:20:28.974Z,9.00
2023-01-08T09:24:32.294Z,9.87
2023-01-08T09:28:36.503Z,9.53
2023-01-08T09:32:39.630Z,8.27
2023-01-08T09:36:42.466Z,8.57
2023-01-08T09:40:49.677Z,8.60
2023-01-08T09:44:55.086Z,8.77
2023-01-08T09:49:00.903Z,8.90
2023-01-08T09:53:03.677Z,8.37
2023-01-08T09:57:06.601Z,8.17
2023-01-08T10:01:13.312Z,8.77
2023-01-08T10:05:18.198Z,9.43
2023-01-08T10:09:26.022Z,10.07
2023-01-08T10:13:28.965Z,7.93
2023-01-08T10:17:38.626Z,8.90
2023-01-08T10:21:42.072Z,9.70
2023-01-08T10:25:53.386Z,8.70
2023-01-08T10:30:06.227Z,8.73
2023-01-08T10:34:11.750Z,8.13
2023-01-08T10:38:25.436Z,15.00
2023-01-08T10:42:28.107Z,21.73
2023-01-08T10:46:36.475Z,13.70
2023-01-08T10:50:40.640Z,9.73
2023-01-08T10:54:43.320Z,8.90
2023-01-08T10:58:46.058Z,8.37
2023-01-08T11:02:50.426Z,7.53
2023-01-08T11:06:59.689Z,7.13
2023-01-08T11:11:03.346Z,6.47
2023-01-08T11:15:08.232Z,6.80
2023-01-08T11:19:18.729Z,7.07
2023-01-08T11:23:24.563Z,6.60
2023-01-08T11:27:30.862Z,6.87
2023-01-08T11:31:39.397Z,8.10
2023-01-08T11:35:44.970Z,7.10
2023-01-08T11:39:49.592Z,6.73
2023-01-08T11:44:05.483Z,6.53
2023-01-08T11:48:33.344Z,6.17
2023-01-08T11:52:45.404Z,6.40
2023-01-08T11:57:00.381Z,5.80
2023-01-08T12:01:22.962Z,6.60
2023-01-08T12:05:31.071Z,6.37
2023-01-08T12:09:40.379Z,6.50
2023-01-08T12:13:58.155Z,5.97
2023-01-08T12:18:20.932Z,6.00
2023-01-08T12:22:38.717Z,5.70
2023-01-08T12:26:47.684Z,6.30
2023-01-08T12:31:16.703Z,6.27
2023-01-08T12:35:22.656Z,7.10
2023-01-08T12:39:29.305Z,7.07
2023-01-08T12:43:35.989Z,7.10
2023-01-08T12:47:49.872Z,6.77
2023-01-08T12:51:57.528Z,6.63
2023-01-08T12:56:05.665Z,7.17
2023-01-08T13:00:16.633Z,6.57
2023-01-08T13:04:20.852Z,6.90
2023-01-08T13:08:30.793Z,6.23
2023-01-08T13:12:36.738Z,6.60
2023-01-08T13:16:40.809Z,6.77
2023-01-08T13:20:56.675Z,7.83
2023-01-08T13:25:28.892Z,8.07
2023-01-08T13:29:42.760Z,7.90
2023-01-08T13:33:47.751Z,6.47
2023-01-08T13:37:53.058Z,7.10
2023-01-08T13:42:00.857Z,7.57
2023-01-08T13:46:09.491Z,6.10
2023-01-08T13:50:18.265Z,7.77
2023-01-08T13:54:32.851Z,8.07
2023-01-08T13:58:38.154Z,7.63
2023-01-08T14:02:50.098Z,7.73
2023-01-08T14:06:53.291Z,7.07
2023-01-08T14:10:58.503Z,7.30
2023-01-08T14:15:04.212Z,7.40
2023-01-08T14:19:07.487Z,8.20
2023-01-08T14:23:12.901Z,8.43
2023-01-08T14:27:25.516Z,8.93
2023-01-08T14:31:29.534Z,10.10
2023-01-08T14:35:34.908Z,9.30
2023-01-08T14:39:39.056Z,8.80
2023-01-08T14:43:44.268Z,10.37
2023-01-08T14:47:49.232Z,9.67
2023-01-08T14:51:52.979Z,9.43
2023-01-08T14:55:57.647Z,9.83
2023-01-08T15:00:02.938Z,12.33
2023-01-08T15:04:07.880Z,10.63
2023-01-08T15:08:24.848Z,10.47
2023-01-08T15:12:30.659Z,9.33
2023-01-08T15:16:38.741Z,9.90
2023-01-08T15:20:42.374Z,8.43
2023-01-08T15:24:51.396Z,9.03
2023-01-08T15:28:56.084Z,9.30
2023-01-08T15:33:09.570Z,8.80
2023-01-08T15:37:12.736Z,9.03
2023-01-08T15:41:39.250Z,9.93
2023-01-08T15:45:43.425Z,8.73
2023-01-08T15:49:47.583Z,8.13
2023-01-08T15:53:50.241Z,8.80
2023-01-08T15:57:55.194Z,7.73
2023-01-08T16:01:58.049Z,11.03
2023-01-08T16:06:06.841Z,10.13
2023-01-08T16:10:10.542Z,10.83
2023-01-08T16:14:13.472Z,9.73
2023-01-08T16:18:16.445Z,13.60
2023-01-08T16:22:20.962Z,9.57
2023-01-08T16:26:23.661Z,10.97
2023-01-08T16:30:27.845Z,9.10
2023-01-08T16:34:30.514Z,8.43
2023-01-08T16:38:35.356Z,8.33
2023-01-08T16:42:38.458Z,8.20
2023-01-08T16:46:41.210Z,8.40
2023-01-08T16:50:44.568Z,8.23
2023-01-08T16:54:48.991Z,8.07
2023-01-08T16:58:52.437Z,12.33
2023-01-08T17:02:55.255Z,8.60
2023-01-08T17:06:58.197Z,7.23
2023-01-08T17:11:02.279Z,7.60
2023-01-08T17:15:05.856Z,9.03
2023-01-08T17:19:08.669Z,10.20
2023-01-08T17:23:11.291Z,9.57
2023-01-08T17:27:15.471Z,9.83
2023-01-08T17:31:19.348Z,9.63
2023-01-08T17:35:22.220Z,9.10
2023-01-08T17:39:24.989Z,10.60
2023-01-08T17:43:29.843Z,11.33
2023-01-08T17:47:32.991Z,9.90
2023-01-08T17:51:35.957Z,10.57
2023-01-08T17:55:38.899Z,11.43
2023-01-08T17:59:43.683Z,9.37
2023-01-08T18:03:46.651Z,9.83
2023-01-08T18:07:49.314Z,10.17
2023-01-08T18:11:52.029Z,9.80
2023-01-08T18:15:56.104Z,10.20
2023-01-08T18:19:58.938Z,11.00
2023-01-08T18:24:01.668Z,9.90
2023-01-08T18:28:04.459Z,10.53
2023-01-08T18:32:08.598Z,8.80
2023-01-08T18:36:14.510Z,9.80
2023-01-08T18:40:17.872Z,9.13
2023-01-08T18:44:20.877Z,10.20
2023-01-08T18:48:25.030Z,8.63
2023-01-08T18:52:27.711Z,10.00
2023-01-08T18:56:31.937Z,9.40
2023-01-08T19:00:36.783Z,9.87
2023-01-08T19:04:41.546Z,10.07
2023-01-08T19:08:45.443Z,7.13
2023-01-08T19:12:48.413Z,20.57
2023-01-08T19:16:51.903Z,17.70
2023-01-08T19:20:56.253Z,8.63
2023-01-08T19:24:59.554Z,7.67
2023-01-08T19:29:04.880Z,6.70
2023-01-08T19:33:07.763Z,7.50
2023-01-08T19:37:13.791Z,6.77
2023-01-08T19:41:34.064Z,7.53
2023-01-08T19:45:36.992Z,7.07
2023-01-08T19:49:41.468Z,6.83
2023-01-08T19:53:45.632Z,7.10
2023-01-08T19:57:48.467Z,7.03
2023-01-08T20:01:51.494Z,8.03
2023-01-08T20:05:54.323Z,6.80
2023-01-08T20:09:58.791Z,7.80
2023-01-08T20:14:02.867Z,8.47
2023-01-08T20:18:05.932Z,8.33
2023-01-08T20:22:08.652Z,9.00
2023-01-08T20:26:14.436Z,8.67
2023-01-08T20:30:17.607Z,8.63
2023-01-08T20:34:20.422Z,7.93
2023-01-08T20:38:23.158Z,8.00
2023-01-08T20:42:34.078Z,7.50
2023-01-08T20:46:38.575Z,7.80
2023-01-08T20:50:44.673Z,7.77
2023-01-08T20:54:47.449Z,7.70
2023-01-08T20:58:52.681Z,11.10
2023-01-08T21:02:55.650Z,8.70
2023-01-08T21:06:58.389Z,7.90
2023-01-08T21:11:01.843Z,7.37
2023-01-08T21:15:08.619Z,7.53
2023-01-08T21:19:11.628Z,6.93
2023-01-08T21:23:14.470Z,7.07
2023-01-08T21:27:17.153Z,7.27
2023-01-08T21:31:24.501Z,8.37
2023-01-08T21:35:27.545Z,7.70
2023-01-08T21:39:32.893Z,6.67
2023-01-08T21:43:53.631Z,6.67
2023-01-08T21:47:58.922Z,6.80
2023-01-08T21:52:19.004Z,6.87
2023-01-08T21:56:22.012Z,6.43
2023-01-08T22:00:25.065Z,6.60
2023-01-08T22:04:29.605Z,7.40
2023-01-08T22:08:32.885Z,7.83
2023-01-08T22:12:35.963Z,7.37
2023-01-08T22:16:38.735Z,7.27
2023-01-08T22:20:42.988Z,6.93
2023-01-08T22:24:45.681Z,7.50
2023-01-08T22:28:48.392Z,7.00
2023-01-08T22:32:51.144Z,7.80
2023-01-08T22:36:55.536Z,7.20
2023-01-08T22:40:58.292Z,7.47
2023-01-08T22:45:00.995Z,7.53
2023-01-08T22:49:04.505Z,9.40
2023-01-08T22:53:08.596Z,7.83
2023-01-08T22:57:11.389Z,8.80
2023-01-08T23:01:15.591Z,7.50
2023-01-08T23:05:18.364Z,8.20
2023-01-08T23:09:23.028Z,8.17
2023-01-08T23:13:25.730Z,7.90
2023-01-08T23:17:28.606Z,7.83
2023-01-08T23:21:31.747Z,9.10
2023-01-08T23:25:35.777Z,8.47
2023-01-08T23:29:38.521Z,8.17
2023-01-08T23:33:41.624Z,8.40
2023-01-08T23:37:44.334Z,9.00
2023-01-08T23:41:48.686Z,8.40
2023-01-08T23:45:51.525Z,8.53
2023-01-08T23:49:54.230Z,8.97
2023-01-08T23:53:57.039Z,8.67
2023-01-08T23:58:01.384Z,8.60
